Duffau, Texas
Current Conditions -  °F | °C
As of 9:55 PM on Wednesday 22 Oct 2014 (Local Time) from KSEP Reporting Station
Overcast Overcast  
Wind Chill: 21°   Ceiling: 11000
Heat Index: 21°   Visibility: 10mi
Dew Point: 14°   Wind: 6mph
Humidity: 65%   Direction: 120°ESE
Pressure: 30.14"   Gusts: NA
Location:  31.981°N, 98.033°W
Report Text: KSEP 230255Z AUTO 12005KT 10SM OVC110 21/14 A3014 RMK AO2 T02120143
Loading
Personal Weather Stations






























Interactive Weather Map
Tropical Storm Tracking
New forecast layout! Learn more

10-Day Weather Forecast

Advertisements
Track Severe Weather on mobile